createdAt,value
2023-03-06T00:01:51.960Z,1.94
2023-03-06T00:04:39.631Z,2.09
2023-03-06T00:07:27.369Z,2.05
2023-03-06T00:10:20.826Z,2.40
2023-03-06T00:13:12.369Z,2.45
2023-03-06T00:16:03.652Z,2.55
2023-03-06T00:18:51.604Z,2.49
2023-03-06T00:21:41.468Z,2.08
2023-03-06T00:24:29.302Z,2.20
2023-03-06T00:27:16.797Z,2.19
2023-03-06T00:30:04.999Z,1.92
2023-03-06T00:32:54.634Z,2.25
2023-03-06T00:35:43.890Z,2.10
2023-03-06T00:38:35.669Z,1.96
2023-03-06T00:41:23.469Z,1.86
2023-03-06T00:44:11.055Z,1.57
2023-03-06T00:46:58.748Z,1.53
2023-03-06T00:49:46.576Z,1.63
2023-03-06T00:52:34.257Z,1.87
2023-03-06T00:55:22.592Z,1.86
2023-03-06T00:58:10.327Z,1.78
2023-03-06T01:00:58.039Z,1.84
2023-03-06T01:03:45.890Z,1.59
2023-03-06T01:06:34.650Z,1.64
2023-03-06T01:09:24.593Z,1.68
2023-03-06T01:12:14.469Z,1.67
2023-03-06T01:15:02.375Z,1.74
2023-03-06T01:17:53.622Z,1.61
2023-03-06T01:20:41.299Z,1.53
2023-03-06T01:23:29.061Z,1.39
2023-03-06T01:26:16.957Z,1.47
2023-03-06T01:29:04.843Z,1.42
2023-03-06T01:31:53.150Z,1.49
2023-03-06T01:34:40.780Z,1.44
2023-03-06T01:37:28.690Z,1.39
2023-03-06T01:40:16.959Z,1.57
2023-03-06T01:43:27.060Z,1.72
2023-03-06T01:46:32.950Z,1.78
2023-03-06T01:49:25.968Z,1.47
2023-03-06T01:52:17.466Z,1.51
2023-03-06T01:55:28.215Z,1.75
2023-03-06T01:58:19.203Z,1.76
2023-03-06T02:01:07.105Z,1.81
2023-03-06T02:03:55.705Z,2.05
2023-03-06T02:06:44.035Z,2.12
2023-03-06T02:09:34.410Z,2.02
2023-03-06T02:12:22.547Z,2.02
2023-03-06T02:15:12.612Z,1.96
2023-03-06T02:18:00.807Z,1.68
2023-03-06T02:20:54.713Z,1.83
2023-03-06T02:24:00.500Z,1.62
2023-03-06T02:26:48.704Z,1.54
2023-03-06T02:29:36.990Z,1.47
2023-03-06T02:32:24.711Z,1.32
2023-03-06T02:35:25.620Z,1.30
2023-03-06T02:38:17.946Z,1.14
2023-03-06T02:41:08.866Z,0.88
2023-03-06T02:43:56.546Z,1.05
2023-03-06T02:46:44.420Z,0.79
2023-03-06T02:49:32.092Z,0.84
2023-03-06T02:52:20.095Z,1.04
2023-03-06T02:55:08.294Z,0.99
2023-03-06T02:57:55.972Z,1.20
2023-03-06T03:00:44.548Z,0.91
2023-03-06T03:03:33.494Z,1.39
2023-03-06T03:06:21.425Z,1.38
2023-03-06T03:09:10.057Z,1.28
2023-03-06T03:11:57.699Z,1.38
2023-03-06T03:14:45.452Z,1.19
2023-03-06T03:17:37.303Z,1.25
2023-03-06T03:20:25.096Z,1.31
2023-03-06T03:23:12.694Z,1.21
2023-03-06T03:26:13.005Z,1.16
2023-03-06T03:29:05.362Z,1.16
2023-03-06T03:31:53.130Z,1.19
2023-03-06T03:34:40.913Z,1.30
2023-03-06T03:37:28.770Z,1.16
2023-03-06T03:40:17.163Z,1.19
2023-03-06T03:43:04.944Z,1.09
2023-03-06T03:46:02.316Z,0.23
2023-03-06T03:48:50.070Z,1.07
2023-03-06T03:51:38.002Z,0.98
2023-03-06T03:54:25.927Z,0.85
2023-03-06T04:00:38.510Z,0.91
2023-03-06T04:03:32.937Z,0.75
2023-03-06T04:06:23.932Z,0.88
2023-03-06T04:09:11.856Z,0.81
2023-03-06T04:11:59.838Z,0.69
2023-03-06T04:14:47.506Z,0.80
2023-03-06T04:17:50.719Z,0.90
2023-03-06T04:20:42.753Z,0.32
2023-03-06T04:23:31.217Z,0.84
2023-03-06T04:26:18.972Z,0.82
2023-03-06T04:29:28.068Z,0.76
2023-03-06T04:32:24.226Z,0.83
2023-03-06T04:35:15.581Z,0.75
2023-03-06T04:38:12.680Z,0.83
2023-03-06T04:41:31.228Z,0.72
2023-03-06T04:44:18.866Z,0.55
2023-03-06T04:47:06.986Z,0.55
2023-03-06T04:50:46.631Z,0.48
2023-03-06T04:54:07.631Z,0.12
2023-03-06T04:56:57.997Z,0.34
2023-03-06T04:59:45.758Z,0.42
2023-03-06T05:02:33.768Z,0.23
2023-03-06T05:05:21.536Z,0.00
2023-03-06T05:08:13.240Z,0.14
2023-03-06T05:11:04.958Z,0.06
2023-03-06T05:13:54.880Z,0.09
2023-03-06T05:16:45.459Z,0.20
2023-03-06T05:19:33.127Z,0.27
2023-03-06T05:22:20.911Z,0.28
2023-03-06T05:25:10.871Z,0.24
2023-03-06T05:27:58.754Z,0.41
2023-03-06T05:30:46.405Z,0.45
2023-03-06T05:33:35.411Z,0.52
2023-03-06T05:36:25.354Z,0.67
2023-03-06T05:39:13.412Z,0.94
2023-03-06T05:42:01.231Z,1.16
2023-03-06T05:44:48.967Z,1.19
2023-03-06T05:47:36.635Z,1.40
2023-03-06T05:50:26.677Z,2.33
2023-03-06T05:53:14.287Z,3.33
2023-03-06T05:56:06.397Z,3.93
2023-03-06T05:58:54.085Z,4.19
2023-03-06T06:01:41.839Z,4.65
2023-03-06T06:04:29.479Z,4.53
2023-03-06T06:07:17.686Z,5.10
2023-03-06T06:10:07.038Z,5.38
2023-03-06T06:12:54.714Z,5.21
2023-03-06T06:15:45.556Z,4.79
2023-03-06T06:18:33.295Z,5.10
2023-03-06T06:21:20.957Z,5.59
2023-03-06T06:24:11.435Z,5.91
2023-03-06T06:27:02.582Z,5.94
2023-03-06T06:29:52.572Z,5.96
2023-03-06T06:32:40.346Z,6.00
2023-03-06T06:35:28.093Z,6.39
2023-03-06T06:38:15.946Z,6.52
2023-03-06T06:41:51.039Z,6.77
2023-03-06T06:44:35.497Z,6.96
2023-03-06T06:47:26.177Z,6.98
2023-03-06T06:50:14.497Z,7.45
2023-03-06T06:53:02.244Z,7.80
2023-03-06T06:55:58.136Z,7.57
2023-03-06T06:58:45.885Z,7.46
2023-03-06T07:01:33.554Z,7.38
2023-03-06T07:04:21.403Z,7.61
2023-03-06T07:07:08.992Z,7.81
2023-03-06T07:10:17.671Z,7.52
2023-03-06T07:13:08.842Z,8.28
2023-03-06T07:15:56.673Z,8.21
2023-03-06T07:18:44.831Z,8.44
2023-03-06T07:21:32.728Z,8.54
2023-03-06T07:24:20.360Z,8.63
2023-03-06T07:27:08.101Z,8.46
2023-03-06T07:29:58.294Z,8.78
2023-03-06T07:32:46.159Z,8.80
2023-03-06T07:35:34.261Z,8.79
2023-03-06T07:38:22.130Z,8.67
2023-03-06T07:41:52.601Z,9.02
2023-03-06T07:44:42.983Z,9.33
2023-03-06T07:47:30.689Z,9.62
2023-03-06T07:50:23.695Z,9.81
2023-03-06T07:53:11.648Z,9.78
2023-03-06T07:55:59.989Z,9.74
2023-03-06T07:58:48.147Z,9.91
2023-03-06T08:01:36.653Z,10.03
2023-03-06T08:04:24.268Z,10.07
2023-03-06T08:07:13.418Z,9.92
2023-03-06T08:10:01.297Z,10.06
2023-03-06T08:12:53.400Z,10.24
2023-03-06T08:15:41.079Z,10.06
2023-03-06T08:18:32.189Z,10.03
2023-03-06T08:21:23.992Z,10.07
2023-03-06T08:24:13.473Z,10.37
2023-03-06T08:27:01.258Z,10.31
2023-03-06T08:29:49.091Z,10.91
2023-03-06T08:32:37.327Z,11.01
2023-03-06T08:35:25.197Z,11.21
2023-03-06T08:38:12.957Z,11.04
2023-03-06T08:41:00.741Z,11.64
2023-03-06T08:43:49.363Z,11.59
2023-03-06T08:46:37.805Z,11.04
2023-03-06T08:49:25.754Z,11.51
2023-03-06T08:52:13.519Z,12.04
2023-03-06T08:55:03.761Z,11.56
2023-03-06T08:57:51.533Z,11.75
2023-03-06T09:00:40.497Z,11.61
2023-03-06T09:03:28.273Z,12.12
2023-03-06T09:06:16.536Z,12.31
2023-03-06T09:09:05.616Z,12.23
2023-03-06T09:11:53.847Z,11.76
2023-03-06T09:14:41.834Z,12.36
2023-03-06T09:17:30.168Z,12.37
2023-03-06T09:20:21.347Z,11.87
2023-03-06T09:23:10.228Z,12.15
2023-03-06T09:26:01.710Z,11.87
2023-03-06T09:28:50.526Z,12.51
2023-03-06T09:31:38.263Z,12.39
2023-03-06T09:34:29.458Z,12.72
2023-03-06T09:37:18.173Z,12.86
2023-03-06T09:40:08.949Z,12.82
2023-03-06T09:42:56.659Z,13.17
2023-03-06T09:45:44.821Z,12.82
2023-03-06T09:48:54.925Z,12.78
2023-03-06T09:52:02.141Z,13.14
2023-03-06T09:55:02.576Z,13.09
2023-03-06T09:57:51.227Z,12.67
2023-03-06T10:01:01.333Z,12.64
2023-03-06T10:04:18.264Z,12.84
2023-03-06T10:07:19.621Z,12.76
2023-03-06T10:10:16.937Z,13.27
2023-03-06T10:13:27.904Z,12.92
2023-03-06T10:16:32.891Z,12.91
2023-03-06T10:19:22.473Z,13.61
2023-03-06T10:22:18.854Z,13.35
2023-03-06T10:25:19.991Z,13.07
2023-03-06T10:28:18.508Z,13.49
2023-03-06T10:31:28.449Z,13.59
2023-03-06T10:34:23.091Z,13.45
2023-03-06T10:37:19.842Z,13.47
2023-03-06T10:40:19.489Z,13.42
2023-03-06T10:43:12.449Z,13.69
2023-03-06T10:46:03.435Z,13.22
2023-03-06T10:48:59.126Z,13.58
2023-03-06T10:52:00.109Z,13.93
2023-03-06T10:54:50.936Z,13.45
2023-03-06T10:57:40.082Z,13.32
2023-03-06T11:00:36.249Z,13.63
2023-03-06T11:03:24.836Z,13.77
2023-03-06T11:06:30.668Z,13.24
2023-03-06T11:09:26.083Z,13.89
2023-03-06T11:12:27.900Z,12.95
2023-03-06T11:15:41.446Z,14.13
2023-03-06T11:18:35.202Z,14.58
2023-03-06T11:21:34.973Z,13.91
2023-03-06T11:24:22.692Z,13.90
2023-03-06T11:27:38.364Z,13.78
2023-03-06T11:30:45.632Z,14.05
2023-03-06T11:33:46.603Z,14.44
2023-03-06T11:36:50.706Z,14.41
2023-03-06T11:39:48.275Z,14.22
2023-03-06T11:42:43.077Z,13.91
2023-03-06T11:45:42.652Z,14.33
2023-03-06T11:48:46.699Z,14.18
2023-03-06T11:51:41.421Z,14.41
2023-03-06T11:54:29.198Z,13.78
2023-03-06T11:57:30.948Z,13.71
2023-03-06T12:00:41.403Z,13.92
2023-03-06T12:03:38.023Z,13.82
2023-03-06T12:07:12.126Z,13.92
2023-03-06T12:10:18.108Z,13.96
2023-03-06T12:13:41.103Z,14.26
2023-03-06T12:16:58.896Z,14.31
2023-03-06T12:19:46.660Z,14.38
2023-03-06T12:22:58.032Z,14.30
2023-03-06T12:26:19.700Z,14.54
2023-03-06T12:29:44.437Z,14.52
2023-03-06T12:33:02.957Z,14.38
2023-03-06T12:35:59.486Z,14.50
2023-03-06T12:39:08.208Z,13.89
2023-03-06T12:42:02.498Z,14.15
2023-03-06T12:45:09.974Z,14.41
2023-03-06T12:47:58.410Z,13.92
2023-03-06T12:50:49.248Z,13.67
2023-03-06T12:53:44.516Z,14.17
2023-03-06T12:56:33.872Z,14.12
2023-03-06T12:59:48.734Z,14.13
2023-03-06T13:02:39.172Z,14.05
2023-03-06T13:05:34.806Z,13.80
2023-03-06T13:08:34.260Z,13.77
2023-03-06T13:11:39.741Z,13.90
2023-03-06T13:14:42.344Z,14.03
2023-03-06T13:17:41.882Z,13.95
2023-03-06T13:20:41.919Z,13.91
2023-03-06T13:23:29.677Z,13.67
2023-03-06T13:26:26.879Z,13.76
2023-03-06T13:29:36.045Z,13.98
2023-03-06T13:32:31.514Z,13.78
2023-03-06T13:35:34.370Z,13.59
2023-03-06T13:38:42.484Z,13.78
2023-03-06T13:41:32.865Z,13.92
2023-03-06T13:44:26.769Z,13.66
2023-03-06T13:47:26.317Z,13.73
2023-03-06T13:50:39.029Z,13.71
2023-03-06T13:53:45.173Z,13.52
2023-03-06T13:56:59.023Z,13.43
2023-03-06T14:00:12.408Z,13.16
2023-03-06T14:03:37.974Z,13.31
2023-03-06T14:06:34.743Z,12.80
2023-03-06T14:09:30.419Z,13.15
2023-03-06T14:12:24.331Z,13.22
2023-03-06T14:15:24.644Z,13.19
2023-03-06T14:18:15.117Z,13.25
2023-03-06T14:21:12.090Z,13.09
2023-03-06T14:24:04.390Z,13.04
2023-03-06T14:26:52.434Z,12.45
2023-03-06T14:29:40.044Z,12.60
2023-03-06T14:32:27.870Z,12.41
2023-03-06T14:35:26.911Z,12.42
2023-03-06T14:38:16.509Z,12.33
2023-03-06T14:41:06.559Z,12.35
2023-03-06T14:44:18.342Z,12.07
2023-03-06T14:47:24.254Z,12.01
2023-03-06T14:50:24.434Z,12.04
2023-03-06T14:53:19.221Z,11.97
2023-03-06T14:56:07.873Z,11.91
2023-03-06T14:59:01.631Z,11.90
2023-03-06T15:01:52.895Z,11.88
2023-03-06T15:04:51.569Z,11.66
2023-03-06T15:07:43.185Z,11.86
2023-03-06T15:10:34.713Z,11.73
2023-03-06T15:13:28.161Z,11.83
2023-03-06T15:16:18.126Z,11.85
2023-03-06T15:22:39.117Z,11.67
2023-03-06T15:25:32.425Z,11.43
2023-03-06T15:28:38.018Z,11.44
2023-03-06T15:31:31.122Z,11.33
2023-03-06T15:34:23.921Z,11.34
2023-03-06T15:37:28.007Z,11.18
2023-03-06T15:40:23.937Z,11.16
2023-03-06T15:43:12.064Z,11.08
2023-03-06T15:46:01.208Z,10.99
2023-03-06T15:48:53.672Z,10.77
2023-03-06T15:51:43.862Z,10.66
2023-03-06T15:54:32.998Z,10.49
2023-03-06T15:57:25.097Z,10.30
2023-03-06T16:00:28.488Z,10.31
2023-03-06T16:03:18.266Z,10.18
2023-03-06T16:06:06.951Z,10.09
2023-03-06T16:08:54.622Z,9.93
2023-03-06T16:11:47.553Z,9.81
2023-03-06T16:14:38.307Z,9.70
2023-03-06T16:17:26.060Z,9.55
2023-03-06T16:20:22.344Z,9.49
2023-03-06T16:23:10.905Z,9.31
2023-03-06T16:25:58.680Z,9.24
2023-03-06T16:28:47.048Z,9.10
2023-03-06T16:31:36.418Z,9.16
2023-03-06T16:34:24.937Z,9.03
2023-03-06T16:37:14.358Z,8.80
2023-03-06T16:40:09.628Z,8.89
2023-03-06T16:42:57.265Z,8.70
2023-03-06T16:45:45.257Z,8.60
2023-03-06T16:48:41.205Z,8.38
2023-03-06T16:51:38.124Z,8.49
2023-03-06T16:54:26.437Z,8.37
2023-03-06T16:57:17.962Z,8.20
2023-03-06T17:00:06.842Z,8.28
2023-03-06T17:03:02.191Z,8.29
2023-03-06T17:05:49.930Z,8.21
2023-03-06T17:08:37.753Z,8.11
2023-03-06T17:11:25.640Z,8.09
2023-03-06T17:14:13.466Z,8.00
2023-03-06T17:17:04.199Z,8.07
2023-03-06T17:19:52.896Z,7.99
2023-03-06T17:22:44.551Z,7.79
2023-03-06T17:25:35.212Z,7.92
2023-03-06T17:28:26.877Z,7.87
2023-03-06T17:31:20.361Z,7.98
2023-03-06T17:34:08.210Z,7.89
2023-03-06T17:36:56.901Z,7.82
2023-03-06T17:39:45.736Z,7.74
2023-03-06T17:42:36.214Z,7.91
2023-03-06T17:45:25.162Z,7.59
2023-03-06T17:48:25.804Z,7.84
2023-03-06T17:51:14.745Z,7.79
2023-03-06T17:54:03.579Z,7.77
2023-03-06T17:56:54.799Z,7.71
2023-03-06T17:59:48.802Z,7.72
2023-03-06T18:02:36.700Z,7.46
2023-03-06T18:05:24.701Z,7.45
2023-03-06T18:08:13.685Z,7.41
2023-03-06T18:11:06.719Z,7.37
2023-03-06T18:13:54.566Z,7.28
2023-03-06T18:17:01.191Z,7.13
2023-03-06T18:19:48.912Z,6.97
2023-03-06T18:22:39.648Z,6.89
2023-03-06T18:25:27.616Z,6.72
2023-03-06T18:28:18.543Z,6.59
2023-03-06T18:34:00.442Z,6.06
2023-03-06T18:36:51.010Z,6.24
2023-03-06T18:39:38.792Z,6.05
2023-03-06T18:42:26.783Z,5.95
2023-03-06T18:45:14.584Z,5.93
2023-03-06T18:48:05.119Z,5.80
2023-03-06T18:50:52.960Z,5.78
2023-03-06T18:53:41.554Z,5.77
2023-03-06T18:56:29.376Z,5.79
2023-03-06T18:59:18.904Z,5.79
2023-03-06T19:02:07.363Z,5.75
2023-03-06T19:04:55.181Z,5.66
2023-03-06T19:07:43.073Z,5.66
2023-03-06T19:10:31.488Z,5.66
2023-03-06T19:13:19.598Z,5.63
2023-03-06T19:16:07.894Z,5.38
2023-03-06T19:18:57.515Z,5.66
2023-03-06T19:21:45.733Z,5.63
2023-03-06T19:24:33.758Z,5.66
2023-03-06T19:27:21.688Z,5.60
2023-03-06T19:30:10.101Z,5.45
2023-03-06T19:32:57.989Z,5.35
2023-03-06T19:35:46.015Z,5.28
2023-03-06T19:38:36.431Z,5.21
2023-03-06T19:41:25.236Z,5.07
2023-03-06T19:44:13.216Z,5.06
2023-03-06T19:47:01.041Z,5.12
2023-03-06T19:49:48.982Z,4.92
2023-03-06T19:52:38.572Z,4.77
2023-03-06T19:55:28.935Z,4.72
2023-03-06T19:58:16.729Z,4.57
2023-03-06T20:01:13.802Z,4.53
2023-03-06T20:04:02.273Z,4.71
2023-03-06T20:06:53.555Z,4.70
2023-03-06T20:09:44.368Z,4.65
2023-03-06T20:12:33.498Z,4.62
2023-03-06T20:15:41.544Z,4.56
2023-03-06T20:19:27.053Z,4.40
2023-03-06T20:22:14.800Z,4.55
2023-03-06T20:25:04.567Z,4.35
2023-03-06T20:27:54.867Z,4.45
2023-03-06T20:30:42.500Z,4.50
2023-03-06T20:33:30.251Z,4.40
2023-03-06T20:36:23.703Z,4.24
2023-03-06T20:39:16.963Z,4.17
2023-03-06T20:42:05.240Z,4.19
2023-03-06T20:44:53.007Z,4.05
2023-03-06T20:47:47.526Z,4.33
2023-03-06T20:50:35.163Z,4.07
2023-03-06T20:53:22.735Z,3.90
2023-03-06T20:56:15.234Z,3.89
2023-03-06T20:59:04.156Z,3.80
2023-03-06T21:01:51.876Z,3.71
2023-03-06T21:04:41.253Z,3.66
2023-03-06T21:07:28.952Z,3.40
2023-03-06T21:10:16.611Z,3.23
2023-03-06T21:13:04.395Z,3.53
2023-03-06T21:15:52.164Z,3.61
2023-03-06T21:18:40.295Z,3.76
2023-03-06T21:21:31.288Z,3.53
2023-03-06T21:24:21.230Z,3.56
2023-03-06T21:27:09.140Z,3.52
2023-03-06T21:29:57.306Z,3.56
2023-03-06T21:32:45.050Z,3.77
2023-03-06T21:35:36.849Z,3.76
2023-03-06T21:38:24.517Z,3.74
2023-03-06T21:41:18.435Z,3.88
2023-03-06T21:44:06.883Z,4.02
2023-03-06T21:46:54.658Z,3.95
2023-03-06T21:49:42.296Z,4.15
2023-03-06T21:52:30.136Z,4.21
2023-03-06T21:55:18.178Z,3.92
2023-03-06T21:58:05.933Z,4.26
2023-03-06T22:00:53.688Z,4.28
2023-03-06T22:03:41.599Z,4.19
2023-03-06T22:06:30.893Z,4.42
2023-03-06T22:09:20.164Z,4.54
2023-03-06T22:12:08.025Z,4.38
2023-03-06T22:14:56.536Z,4.49
2023-03-06T22:17:44.153Z,4.43
2023-03-06T22:20:31.918Z,4.58
2023-03-06T22:23:19.597Z,4.65
2023-03-06T22:26:10.689Z,4.42
2023-03-06T22:28:58.256Z,4.56
2023-03-06T22:31:45.967Z,4.44
2023-03-06T22:34:33.691Z,4.39
2023-03-06T22:37:21.423Z,4.35
2023-03-06T22:40:09.793Z,4.23
2023-03-06T22:42:57.553Z,3.85
2023-03-06T22:45:45.150Z,4.00
2023-03-06T22:48:33.435Z,4.09
2023-03-06T22:51:21.312Z,4.00
2023-03-06T22:54:09.972Z,3.98
2023-03-06T22:56:57.569Z,3.84
2023-03-06T22:59:45.374Z,3.70
2023-03-06T23:02:34.800Z,3.83
2023-03-06T23:05:22.541Z,3.67
2023-03-06T23:08:10.361Z,3.67
2023-03-06T23:10:58.015Z,3.65
2023-03-06T23:14:06.011Z,3.71
2023-03-06T23:17:12.259Z,3.65
2023-03-06T23:20:18.694Z,3.86
2023-03-06T23:23:25.793Z,3.96
2023-03-06T23:26:15.213Z,4.13
2023-03-06T23:29:04.520Z,4.16
2023-03-06T23:31:52.101Z,4.14
2023-03-06T23:34:40.037Z,4.11
2023-03-06T23:37:27.909Z,4.08
2023-03-06T23:40:16.560Z,3.97
2023-03-06T23:43:09.892Z,4.02
2023-03-06T23:45:58.106Z,3.43
2023-03-06T23:48:46.437Z,3.85
2023-03-06T23:51:34.170Z,3.86
2023-03-06T23:54:21.861Z,3.77
2023-03-06T23:57:09.866Z,3.82
2023-03-06T23:59:57.716Z,3.06
